createdAt,value
2018-11-04T00:01:10.475Z,12.30
2018-11-04T00:03:39.216Z,16.23
2018-11-04T00:06:10.470Z,16.47
2018-11-04T00:08:43.012Z,17.70
2018-11-04T00:11:13.511Z,15.23
2018-11-04T00:13:41.919Z,18.40
2018-11-04T00:16:10.356Z,23.27
2018-11-04T00:18:38.767Z,16.80
2018-11-04T00:21:07.214Z,20.07
2018-11-04T00:23:35.588Z,15.10
2018-11-04T00:26:04.114Z,13.67
2018-11-04T00:28:32.554Z,12.97
2018-11-04T00:31:01.045Z,17.00
2018-11-04T00:33:29.460Z,15.90
2018-11-04T00:35:57.903Z,14.60
2018-11-04T00:38:26.290Z,15.50
2018-11-04T00:40:54.745Z,12.30
2018-11-04T00:43:23.195Z,14.40
2018-11-04T00:45:51.583Z,15.10
2018-11-04T00:48:20.076Z,18.60
2018-11-04T00:50:48.534Z,15.10
2018-11-04T00:53:16.952Z,17.53
2018-11-04T00:55:48.137Z,12.57
2018-11-04T00:58:16.586Z,16.00
2018-11-04T01:00:45.103Z,15.57
2018-11-04T01:03:13.491Z,10.30
2018-11-04T01:05:41.867Z,16.83
2018-11-04T01:08:10.313Z,12.87
2018-11-04T01:10:38.707Z,15.13
2018-11-04T01:13:07.136Z,13.47
2018-11-04T01:15:35.524Z,14.03
2018-11-04T01:18:04.015Z,18.20
2018-11-04T01:20:32.416Z,13.13
2018-11-04T01:23:00.835Z,12.07
2018-11-04T01:25:29.749Z,10.93
2018-11-04T01:27:59.146Z,18.30
2018-11-04T01:30:27.603Z,14.80
2018-11-04T01:32:55.964Z,19.10
2018-11-04T01:35:24.423Z,73.97
2018-11-04T01:37:52.813Z,78.87
2018-11-04T01:40:21.213Z,76.23
2018-11-04T01:42:50.545Z,53.33
2018-11-04T01:45:19.596Z,36.80
2018-11-04T01:47:48.827Z,59.57
2018-11-04T01:50:17.221Z,41.53
2018-11-04T01:52:46.202Z,28.20
2018-11-04T01:55:18.040Z,36.17
2018-11-04T01:57:47.393Z,42.67
2018-11-04T02:00:16.937Z,46.43
2018-11-04T02:02:46.015Z,28.37
2018-11-04T02:05:14.774Z,20.23
2018-11-04T02:07:43.205Z,19.27
2018-11-04T02:10:12.983Z,18.13
2018-11-04T02:12:41.422Z,24.87
2018-11-04T02:15:11.376Z,34.67
2018-11-04T02:17:39.875Z,23.07
2018-11-04T02:20:10.086Z,16.10
2018-11-04T02:22:38.569Z,18.10
2018-11-04T02:25:07.892Z,23.57
2018-11-04T02:27:36.344Z,17.67
2018-11-04T02:30:05.198Z,14.90
2018-11-04T02:32:33.594Z,16.53
2018-11-04T02:35:02.054Z,21.93
2018-11-04T02:37:30.504Z,16.73
2018-11-04T02:39:58.954Z,21.37
2018-11-04T02:42:27.392Z,18.03
2018-11-04T02:44:55.844Z,15.50
2018-11-04T02:47:24.280Z,16.50
2018-11-04T02:49:52.675Z,16.17
2018-11-04T02:52:21.210Z,15.63
2018-11-04T02:54:49.620Z,14.47
2018-11-04T02:57:18.004Z,17.20
2018-11-04T02:59:46.428Z,19.67
2018-11-04T03:02:14.844Z,16.50
2018-11-04T03:04:43.271Z,16.90
2018-11-04T03:07:11.710Z,16.47
2018-11-04T03:09:40.127Z,17.20
2018-11-04T03:12:08.568Z,16.23
2018-11-04T03:14:36.962Z,16.60
2018-11-04T03:17:05.556Z,16.90
2018-11-04T03:19:33.923Z,15.00
2018-11-04T03:22:02.311Z,17.43
2018-11-04T03:24:30.842Z,18.90
2018-11-04T03:26:59.211Z,16.07
2018-11-04T03:29:28.219Z,17.70
2018-11-04T03:31:56.595Z,17.10
2018-11-04T03:34:25.343Z,16.40
2018-11-04T03:36:54.755Z,19.53
2018-11-04T03:39:23.218Z,19.33
2018-11-04T03:41:52.870Z,18.77
2018-11-04T03:44:21.388Z,22.43
2018-11-04T03:46:50.643Z,19.73
2018-11-04T03:49:20.473Z,17.10
2018-11-04T03:51:48.870Z,16.17
2018-11-04T03:54:17.896Z,16.00
2018-11-04T03:56:46.586Z,16.40
2018-11-04T03:59:15.000Z,15.33
2018-11-04T04:01:43.425Z,19.53
2018-11-04T04:04:11.821Z,19.13
2018-11-04T04:06:40.243Z,17.00
2018-11-04T04:09:09.727Z,17.93
2018-11-04T04:11:39.183Z,16.53
2018-11-04T04:14:08.678Z,18.60
2018-11-04T04:16:37.614Z,20.77
2018-11-04T04:19:06.402Z,19.73
2018-11-04T04:21:34.807Z,20.17
2018-11-04T04:24:03.223Z,14.37
2018-11-04T04:26:31.609Z,22.43
2018-11-04T04:29:00.025Z,18.90
2018-11-04T04:31:28.579Z,21.30
2018-11-04T04:33:57.015Z,18.73
2018-11-04T04:36:25.424Z,19.30
2018-11-04T04:38:53.854Z,22.07
2018-11-04T04:41:22.292Z,22.43
2018-11-04T04:43:50.740Z,20.10
2018-11-04T04:46:19.160Z,23.30
2018-11-04T04:48:47.606Z,20.57
2018-11-04T04:51:16.013Z,16.43
2018-11-04T04:53:44.430Z,16.03
2018-11-04T04:56:12.879Z,14.87
2018-11-04T04:58:41.294Z,18.07
2018-11-04T05:01:09.673Z,20.87
2018-11-04T05:03:38.058Z,18.00
2018-11-04T05:06:06.492Z,21.47
2018-11-04T05:08:34.875Z,23.90
2018-11-04T05:11:03.336Z,21.37
2018-11-04T05:13:31.741Z,23.63
2018-11-04T05:16:00.180Z,23.87
2018-11-04T05:18:28.593Z,20.70
2018-11-04T05:20:57.014Z,20.30
2018-11-04T05:23:25.415Z,21.33
2018-11-04T05:25:53.836Z,17.73
2018-11-04T05:28:22.235Z,22.23
2018-11-04T05:30:50.633Z,24.70
2018-11-04T05:33:19.086Z,20.43
2018-11-04T05:35:47.540Z,23.60
2018-11-04T05:38:15.972Z,17.67
2018-11-04T05:40:44.367Z,21.43
2018-11-04T05:43:12.847Z,21.67
2018-11-04T05:45:41.216Z,21.77
2018-11-04T05:48:09.654Z,26.80
2018-11-04T05:50:38.062Z,20.80
2018-11-04T05:53:06.493Z,20.80
2018-11-04T05:55:34.918Z,22.97
2018-11-04T05:58:03.326Z,18.03
2018-11-04T06:00:31.769Z,19.57
2018-11-04T06:03:00.177Z,20.83
2018-11-04T06:05:28.572Z,18.80
2018-11-04T06:07:56.977Z,20.20
2018-11-04T06:10:25.398Z,20.20
2018-11-04T06:12:53.825Z,22.43
2018-11-04T06:15:22.248Z,20.43
2018-11-04T06:17:50.645Z,21.10
2018-11-04T06:20:19.034Z,18.87
2018-11-04T06:22:47.420Z,22.63
2018-11-04T06:25:15.813Z,20.60
2018-11-04T06:27:44.241Z,21.77
2018-11-04T06:30:13.468Z,23.23
2018-11-04T06:32:42.734Z,19.70
2018-11-04T06:35:11.140Z,25.93
2018-11-04T06:37:39.606Z,21.73
2018-11-04T06:40:08.914Z,26.43
2018-11-04T06:42:37.393Z,22.10
2018-11-04T06:45:06.783Z,23.00
2018-11-04T06:47:35.208Z,23.97
2018-11-04T06:50:03.674Z,25.67
2018-11-04T06:52:32.145Z,22.13
2018-11-04T06:55:00.506Z,22.37
2018-11-04T06:57:28.942Z,22.83
2018-11-04T06:59:57.364Z,24.90
2018-11-04T07:02:25.838Z,22.63
2018-11-04T07:04:54.275Z,20.67
2018-11-04T07:07:22.678Z,25.13
2018-11-04T07:09:51.137Z,23.20
2018-11-04T07:12:19.579Z,32.13
2018-11-04T07:14:48.004Z,27.20
2018-11-04T07:17:16.403Z,32.57
2018-11-04T07:19:44.833Z,31.10
2018-11-04T07:22:13.285Z,24.70
2018-11-04T07:24:41.711Z,27.37
2018-11-04T07:27:10.125Z,26.33
2018-11-04T07:29:38.613Z,24.93
2018-11-04T07:32:07.132Z,24.00
2018-11-04T07:34:35.497Z,22.63
2018-11-04T07:37:04.036Z,22.00
2018-11-04T07:39:32.497Z,26.93
2018-11-04T07:42:00.908Z,27.77
2018-11-04T07:44:29.433Z,26.60
2018-11-04T07:46:58.701Z,26.50
2018-11-04T07:49:27.144Z,24.43
2018-11-04T07:51:55.576Z,22.20
2018-11-04T07:54:24.020Z,23.00
2018-11-04T07:56:52.548Z,25.43
2018-11-04T07:59:20.988Z,24.93
2018-11-04T08:01:49.482Z,34.70
2018-11-04T08:04:17.950Z,27.03
2018-11-04T08:06:46.354Z,25.83
2018-11-04T08:09:14.787Z,24.50
2018-11-04T08:11:43.208Z,26.77
2018-11-04T08:14:11.691Z,22.90
2018-11-04T08:16:40.084Z,24.57
2018-11-04T08:19:09.641Z,23.40
2018-11-04T08:21:38.455Z,27.97
2018-11-04T08:24:07.226Z,26.07
2018-11-04T08:26:36.125Z,25.60
2018-11-04T08:29:04.602Z,29.30
2018-11-04T08:31:33.080Z,30.10
2018-11-04T08:34:01.496Z,27.60
2018-11-04T08:36:29.973Z,27.50
2018-11-04T08:38:58.400Z,28.50
2018-11-04T08:41:26.873Z,28.27
2018-11-04T08:43:55.316Z,28.00
2018-11-04T08:46:23.791Z,30.57
2018-11-04T08:48:52.224Z,28.03
2018-11-04T08:51:20.672Z,30.37
2018-11-04T08:53:49.117Z,30.73
2018-11-04T08:56:17.576Z,32.10
2018-11-04T08:58:45.990Z,31.37
2018-11-04T09:01:14.448Z,30.63
2018-11-04T09:03:42.916Z,29.30
2018-11-04T09:06:11.341Z,35.70
2018-11-04T09:08:39.863Z,35.07
2018-11-04T09:11:08.262Z,31.60
2018-11-04T09:13:36.675Z,44.73
2018-11-04T09:16:05.201Z,42.50
2018-11-04T09:18:33.633Z,52.03
2018-11-04T09:21:02.087Z,87.27
2018-11-04T09:23:30.555Z,76.83
2018-11-04T09:25:59.024Z,85.60
2018-11-04T09:28:27.526Z,292.33
2018-11-04T09:30:56.000Z,95.53
2018-11-04T09:33:24.490Z,59.20
2018-11-04T09:35:53.117Z,61.70
2018-11-04T09:38:21.429Z,50.30
2018-11-04T09:40:49.906Z,54.73
2018-11-04T09:43:18.390Z,54.53
2018-11-04T09:45:46.945Z,66.10
2018-11-04T09:48:15.375Z,46.10
2018-11-04T09:50:43.827Z,47.63
2018-11-04T09:53:12.237Z,49.90
2018-11-04T09:55:41.290Z,45.63
2018-11-04T09:58:09.896Z,53.30
2018-11-04T10:00:38.360Z,56.63
2018-11-04T10:03:06.761Z,56.77
2018-11-04T10:05:35.217Z,59.17
2018-11-04T10:08:03.729Z,54.80
2018-11-04T10:10:32.189Z,57.27
2018-11-04T10:13:00.668Z,139.83
2018-11-04T10:15:29.084Z,72.10
2018-11-04T10:17:57.465Z,78.97
2018-11-04T10:20:26.233Z,142.07
2018-11-04T10:22:54.324Z,84.60
2018-11-04T10:25:22.781Z,71.60
2018-11-04T10:27:51.196Z,59.33
2018-11-04T10:30:19.693Z,55.70
2018-11-04T10:32:48.118Z,48.50
2018-11-04T10:35:16.563Z,52.33
2018-11-04T10:37:45.079Z,59.87
2018-11-04T10:40:13.960Z,51.40
2018-11-04T10:42:42.399Z,55.40
2018-11-04T10:45:11.714Z,54.30
2018-11-04T10:47:40.187Z,53.60
2018-11-04T10:50:10.291Z,59.07
2018-11-04T10:52:38.728Z,52.07
2018-11-04T10:55:07.956Z,57.67
2018-11-04T10:57:36.424Z,56.70
2018-11-04T11:00:05.937Z,50.90
2018-11-04T11:02:34.458Z,58.60
2018-11-04T11:05:02.915Z,60.37
2018-11-04T11:07:31.384Z,52.97
2018-11-04T11:09:59.866Z,57.70
2018-11-04T11:12:28.312Z,54.17
2018-11-04T11:14:56.744Z,54.43
2018-11-04T11:17:25.134Z,56.40
2018-11-04T11:19:53.560Z,61.10
2018-11-04T11:22:22.095Z,52.93
2018-11-04T11:24:50.485Z,57.50
2018-11-04T11:27:18.953Z,54.80
2018-11-04T11:29:47.419Z,47.67
2018-11-04T11:32:15.885Z,54.17
2018-11-04T11:34:44.321Z,55.43
2018-11-04T11:37:12.759Z,56.17
2018-11-04T11:39:41.177Z,52.23
2018-11-04T11:42:09.657Z,51.00
2018-11-04T11:44:38.114Z,48.40
2018-11-04T11:47:06.786Z,49.40
2018-11-04T11:49:35.267Z,52.63
2018-11-04T11:52:03.703Z,58.77
2018-11-04T11:54:32.125Z,61.27
2018-11-04T11:57:00.572Z,55.80
2018-11-04T11:59:29.102Z,69.97
2018-11-04T12:01:57.494Z,53.27
2018-11-04T12:04:25.869Z,54.00
2018-11-04T12:06:54.380Z,61.87
2018-11-04T12:09:22.863Z,51.30
2018-11-04T12:11:51.329Z,51.47
2018-11-04T12:14:19.770Z,46.63
2018-11-04T12:16:48.464Z,46.13
2018-11-04T12:19:16.966Z,46.47
2018-11-04T12:21:45.453Z,50.30
2018-11-04T12:24:13.926Z,55.57
2018-11-04T12:26:42.445Z,81.37
2018-11-04T12:29:10.947Z,52.40
2018-11-04T12:31:39.380Z,54.90
2018-11-04T12:34:07.814Z,49.40
2018-11-04T12:36:36.320Z,47.47
2018-11-04T12:39:05.777Z,52.50
2018-11-04T12:41:34.228Z,45.07
2018-11-04T12:44:02.726Z,47.03
2018-11-04T12:46:31.182Z,44.53
2018-11-04T12:48:59.691Z,46.50
2018-11-04T12:51:28.333Z,54.83
2018-11-04T12:53:56.726Z,46.63
2018-11-04T12:56:25.135Z,50.90
2018-11-04T12:58:53.652Z,47.50
2018-11-04T13:01:22.106Z,47.70
2018-11-04T13:03:50.605Z,42.83
2018-11-04T13:06:19.083Z,44.40
2018-11-04T13:08:47.600Z,45.50
2018-11-04T13:11:16.079Z,44.43
2018-11-04T13:13:44.594Z,45.73
2018-11-04T13:16:13.104Z,42.37
2018-11-04T13:18:41.921Z,45.97
2018-11-04T13:21:10.478Z,48.80
2018-11-04T13:23:38.877Z,52.40
2018-11-04T13:26:07.385Z,45.37
2018-11-04T13:28:35.784Z,41.33
2018-11-04T13:31:04.305Z,45.90
2018-11-04T13:33:32.800Z,49.47
2018-11-04T13:36:01.426Z,46.63
2018-11-04T13:38:30.050Z,54.47
2018-11-04T13:41:00.292Z,51.90
2018-11-04T13:43:29.677Z,47.67
2018-11-04T13:45:58.171Z,46.70
2018-11-04T13:48:26.615Z,44.07
2018-11-04T13:50:55.067Z,42.33
2018-11-04T13:53:23.509Z,40.03
2018-11-04T13:55:52.004Z,43.03
2018-11-04T13:58:21.641Z,43.50
2018-11-04T14:00:50.132Z,40.67
2018-11-04T14:03:18.626Z,44.13
2018-11-04T14:05:47.153Z,41.37
2018-11-04T14:08:15.615Z,42.40
2018-11-04T14:10:44.071Z,39.27
2018-11-04T14:13:12.598Z,40.03
2018-11-04T14:15:42.290Z,39.10
2018-11-04T14:18:10.757Z,40.27
2018-11-04T14:20:40.948Z,39.60
2018-11-04T14:23:09.393Z,38.97
2018-11-04T14:25:37.855Z,41.50
2018-11-04T14:28:06.325Z,38.33
2018-11-04T14:30:34.764Z,40.20
2018-11-04T14:33:03.229Z,42.07
2018-11-04T14:35:31.670Z,38.93
2018-11-04T14:38:00.206Z,38.60
2018-11-04T14:40:28.714Z,38.93
2018-11-04T14:42:57.214Z,39.03
2018-11-04T14:45:25.698Z,35.37
2018-11-04T14:47:54.319Z,39.03
2018-11-04T14:50:22.790Z,42.67
2018-11-04T14:52:51.230Z,41.93
2018-11-04T14:55:19.658Z,35.87
2018-11-04T14:57:48.140Z,38.17
2018-11-04T15:00:17.056Z,36.40
2018-11-04T15:02:45.507Z,38.60
2018-11-04T15:05:14.013Z,40.17
2018-11-04T15:07:42.487Z,41.07
2018-11-04T15:10:12.832Z,41.87
2018-11-04T15:12:41.406Z,42.10
2018-11-04T15:15:12.122Z,42.33
2018-11-04T15:17:41.176Z,36.60
2018-11-04T15:20:10.616Z,42.10
2018-11-04T15:22:42.926Z,38.03
2018-11-04T15:25:11.347Z,38.37
2018-11-04T15:27:39.865Z,41.73
2018-11-04T15:30:09.358Z,50.60
2018-11-04T15:32:37.890Z,42.47
2018-11-04T15:35:06.464Z,40.77
2018-11-04T15:37:34.908Z,33.43
2018-11-04T15:40:03.563Z,39.57
2018-11-04T15:42:32.133Z,38.37
2018-11-04T15:45:00.576Z,43.53
2018-11-04T15:47:29.086Z,38.60
2018-11-04T15:49:57.509Z,47.57
2018-11-04T15:52:25.975Z,39.40
2018-11-04T15:54:54.489Z,37.93
2018-11-04T15:57:22.961Z,33.60
2018-11-04T15:59:51.416Z,41.77
2018-11-04T16:02:19.937Z,36.87
2018-11-04T16:04:48.376Z,36.17
2018-11-04T16:07:16.893Z,38.50
2018-11-04T16:09:45.308Z,39.77
2018-11-04T16:12:13.781Z,34.73
2018-11-04T16:14:42.185Z,34.50
2018-11-04T16:17:10.608Z,37.33
2018-11-04T16:19:39.013Z,35.43
2018-11-04T16:22:07.467Z,35.27
2018-11-04T16:24:35.907Z,35.20
2018-11-04T16:27:04.393Z,36.50
2018-11-04T16:29:32.827Z,34.90
2018-11-04T16:32:01.437Z,37.57
2018-11-04T16:34:29.780Z,36.63
2018-11-04T16:36:58.247Z,32.83
2018-11-04T16:39:26.741Z,49.27
2018-11-04T16:41:55.243Z,38.13
2018-11-04T16:44:23.894Z,40.20
2018-11-04T16:46:52.207Z,38.50
2018-11-04T16:49:20.655Z,45.00
2018-11-04T16:51:49.118Z,50.23
2018-11-04T16:54:17.598Z,35.13
2018-11-04T16:56:46.023Z,28.70
2018-11-04T16:59:14.472Z,33.10
2018-11-04T17:01:42.918Z,36.10
2018-11-04T17:04:11.409Z,29.50
2018-11-04T17:06:39.866Z,37.43
2018-11-04T17:09:10.924Z,32.40
2018-11-04T17:11:39.394Z,29.93
2018-11-04T17:14:08.116Z,28.77
2018-11-04T17:16:38.012Z,28.37
2018-11-04T17:19:07.085Z,29.77
2018-11-04T17:21:37.418Z,30.03
2018-11-04T17:24:05.903Z,29.53
2018-11-04T17:26:34.377Z,31.17
2018-11-04T17:29:02.809Z,32.23
2018-11-04T17:31:31.260Z,37.37
2018-11-04T17:33:59.715Z,27.03
2018-11-04T17:36:28.280Z,32.23
2018-11-04T17:38:56.657Z,56.10
2018-11-04T17:41:25.182Z,43.77
2018-11-04T17:43:53.718Z,35.40
2018-11-04T17:46:22.136Z,33.30
2018-11-04T17:48:50.659Z,29.63
2018-11-04T17:51:20.150Z,34.50
2018-11-04T17:53:48.593Z,34.20
2018-11-04T17:56:17.028Z,30.97
2018-11-04T17:58:45.504Z,29.50
2018-11-04T18:01:13.975Z,27.83
2018-11-04T18:03:43.137Z,28.90
2018-11-04T18:06:11.638Z,30.80
2018-11-04T18:08:40.305Z,27.50
2018-11-04T18:11:08.775Z,27.97
2018-11-04T18:13:37.229Z,31.63
2018-11-04T18:16:05.785Z,30.10
2018-11-04T18:18:34.308Z,30.27
2018-11-04T18:21:02.810Z,33.97
2018-11-04T18:23:31.313Z,29.00
2018-11-04T18:25:59.741Z,34.07
2018-11-04T18:28:28.157Z,45.63
2018-11-04T18:30:56.701Z,31.27
2018-11-04T18:33:25.167Z,37.90
2018-11-04T18:35:53.692Z,28.27
2018-11-04T18:38:22.103Z,29.97
2018-11-04T18:40:50.596Z,26.80
2018-11-04T18:43:19.040Z,30.67
2018-11-04T18:45:47.514Z,25.17
2018-11-04T18:48:15.963Z,32.83
2018-11-04T18:50:44.380Z,27.63
2018-11-04T18:53:12.833Z,28.40
2018-11-04T18:55:41.263Z,26.67
2018-11-04T18:58:09.715Z,28.30
2018-11-04T19:00:38.135Z,28.70
2018-11-04T19:03:06.632Z,37.90
2018-11-04T19:05:35.257Z,40.40
2018-11-04T19:08:04.867Z,34.70
2018-11-04T19:10:33.354Z,29.80
2018-11-04T19:13:01.850Z,27.80
2018-11-04T19:15:30.880Z,32.90
2018-11-04T19:17:59.356Z,28.83
2018-11-04T19:20:27.821Z,32.63
2018-11-04T19:22:56.307Z,24.93
2018-11-04T19:25:24.739Z,27.10
2018-11-04T19:27:53.222Z,29.93
2018-11-04T19:30:21.666Z,27.97
2018-11-04T19:32:51.209Z,25.40
2018-11-04T19:35:19.668Z,27.10
2018-11-04T19:37:48.156Z,26.13
2018-11-04T19:40:17.412Z,25.80
2018-11-04T19:42:46.010Z,25.03
2018-11-04T19:45:14.415Z,27.93
2018-11-04T19:47:42.898Z,30.40
2018-11-04T19:50:12.682Z,24.13
2018-11-04T19:52:41.582Z,31.20
2018-11-04T19:55:10.703Z,26.30
2018-11-04T19:57:39.125Z,27.10
2018-11-04T20:00:13.196Z,30.07
2018-11-04T20:02:41.737Z,54.20
2018-11-04T20:05:11.991Z,29.83
2018-11-04T20:07:40.444Z,24.97
2018-11-04T20:10:11.598Z,24.63
2018-11-04T20:12:45.274Z,27.87
2018-11-04T20:15:13.743Z,25.37
2018-11-04T20:17:42.248Z,25.67
2018-11-04T20:20:14.481Z,26.67
2018-11-04T20:22:42.984Z,28.30
2018-11-04T20:25:16.558Z,29.13
2018-11-04T20:27:45.005Z,28.60
2018-11-04T20:30:14.155Z,27.37
2018-11-04T20:32:47.844Z,28.07
2018-11-04T20:35:16.772Z,29.63
2018-11-04T20:37:45.346Z,32.13
2018-11-04T20:40:19.088Z,30.93
2018-11-04T20:42:47.574Z,32.70
2018-11-04T20:45:16.059Z,34.37
2018-11-04T20:49:55.343Z,29.40
2018-11-04T20:52:23.758Z,30.27
2018-11-04T20:54:52.282Z,25.80
2018-11-04T20:57:26.017Z,24.70
2018-11-04T20:59:54.459Z,23.07
2018-11-04T21:02:23.091Z,27.20
2018-11-04T21:04:51.475Z,24.10
2018-11-04T21:07:19.927Z,22.33
2018-11-04T21:09:48.432Z,20.20
2018-11-04T21:12:16.864Z,27.13
2018-11-04T21:14:45.301Z,24.93
2018-11-04T21:17:13.802Z,22.53
2018-11-04T21:19:42.334Z,23.90
2018-11-04T21:22:11.648Z,25.23
2018-11-04T21:24:40.404Z,27.13
2018-11-04T21:27:08.940Z,25.20
2018-11-04T21:29:38.033Z,23.53
2018-11-04T21:32:06.770Z,20.90
2018-11-04T21:34:35.252Z,24.23
2018-11-04T21:37:04.461Z,23.50
2018-11-04T21:39:32.864Z,21.17
2018-11-04T21:42:01.461Z,20.97
2018-11-04T21:44:29.979Z,26.10
2018-11-04T21:46:58.456Z,21.50
2018-11-04T21:49:26.969Z,24.67
2018-11-04T21:51:55.368Z,22.67
2018-11-04T21:54:23.814Z,21.90
2018-11-04T21:56:52.304Z,26.50
2018-11-04T21:59:20.767Z,27.17
2018-11-04T22:01:49.703Z,73.80
2018-11-04T22:04:18.275Z,75.30
2018-11-04T22:06:46.645Z,59.53
2018-11-04T22:09:15.095Z,51.30
2018-11-04T22:11:43.549Z,49.70
2018-11-04T22:14:11.948Z,36.93
2018-11-04T22:16:40.513Z,36.60
2018-11-04T22:19:08.974Z,31.90
2018-11-04T22:21:37.445Z,29.47
2018-11-04T22:24:06.014Z,25.70
2018-11-04T22:26:34.439Z,24.97
2018-11-04T22:29:02.874Z,24.50
2018-11-04T22:31:31.287Z,26.27
2018-11-04T22:33:59.717Z,20.40
2018-11-04T22:36:28.137Z,20.30
2018-11-04T22:38:56.589Z,22.27
2018-11-04T22:41:25.009Z,25.60
2018-11-04T22:43:53.482Z,22.03
2018-11-04T22:46:21.936Z,21.73
2018-11-04T22:48:50.418Z,23.40
2018-11-04T22:51:18.830Z,23.03
2018-11-04T22:53:47.325Z,23.50
2018-11-04T22:56:15.768Z,25.97
2018-11-04T22:58:44.187Z,27.10
2018-11-04T23:01:12.561Z,23.83
2018-11-04T23:03:41.040Z,26.13
2018-11-04T23:06:09.544Z,21.30
2018-11-04T23:08:37.962Z,22.50
2018-11-04T23:11:06.410Z,19.50
2018-11-04T23:13:34.852Z,17.97
2018-11-04T23:16:03.288Z,20.20
2018-11-04T23:18:31.761Z,20.40
2018-11-04T23:21:00.176Z,24.07
2018-11-04T23:23:28.633Z,24.13
2018-11-04T23:25:57.041Z,22.90
2018-11-04T23:28:25.469Z,19.00
2018-11-04T23:30:54.026Z,18.30
2018-11-04T23:33:22.484Z,23.07
2018-11-04T23:35:50.900Z,18.40
2018-11-04T23:38:19.288Z,18.40
2018-11-04T23:40:47.697Z,23.03
2018-11-04T23:57:39.145Z,23.17
